createdAt,value
2022-08-04T00:03:17.631Z,45.21
2022-08-04T00:16:13.516Z,45.55
2022-08-04T00:21:18.179Z,46.03
2022-08-04T00:26:20.262Z,46.62
2022-08-04T00:31:54.289Z,46.88
2022-08-04T00:36:58.633Z,47.08
2022-08-04T00:45:35.730Z,47.20
2022-08-04T00:51:43.370Z,47.58
2022-08-04T00:57:09.565Z,47.79
2022-08-04T01:03:17.407Z,47.60
2022-08-04T01:14:58.248Z,47.58
2022-08-04T01:20:09.934Z,47.92
2022-08-04T01:25:39.874Z,48.22
2022-08-04T01:30:47.140Z,48.29
2022-08-04T01:35:55.288Z,48.45
2022-08-04T01:41:01.717Z,48.64
2022-08-04T01:46:04.389Z,48.25
2022-08-04T01:51:06.431Z,48.26
2022-08-04T01:56:09.286Z,48.97
2022-08-04T02:01:12.697Z,49.19
2022-08-04T02:10:45.593Z,49.45
2022-08-04T02:18:03.950Z,49.44
2022-08-04T02:23:08.197Z,48.63
2022-08-04T02:28:29.513Z,48.27
2022-08-04T02:33:39.333Z,48.39
2022-08-04T02:38:53.607Z,48.38
2022-08-04T02:44:04.242Z,49.14
2022-08-04T02:49:07.874Z,49.17
2022-08-04T02:54:08.770Z,49.34
2022-08-04T02:59:11.267Z,49.90
2022-08-04T03:11:11.458Z,49.75
2022-08-04T03:19:57.636Z,49.87
2022-08-04T03:28:46.487Z,49.92
2022-08-04T03:34:24.707Z,50.60
2022-08-04T03:42:57.810Z,50.67
2022-08-04T03:49:39.658Z,50.81
2022-08-04T03:55:22.196Z,51.34
2022-08-04T04:00:33.918Z,51.73
2022-08-04T04:06:00.165Z,51.57
2022-08-04T04:12:52.885Z,51.38
2022-08-04T04:18:16.316Z,51.32
2022-08-04T04:23:54.298Z,51.77
2022-08-04T04:29:26.054Z,52.56
2022-08-04T04:36:19.031Z,52.88
2022-08-04T04:44:10.502Z,53.19
2022-08-04T04:49:25.313Z,51.99
2022-08-04T04:54:50.634Z,50.57
2022-08-04T04:59:56.290Z,50.54
2022-08-04T05:05:30.775Z,50.29
2022-08-04T05:12:44.950Z,50.10
2022-08-04T05:20:45.669Z,49.37
2022-08-04T05:25:59.374Z,47.37
2022-08-04T05:31:04.625Z,46.30
2022-08-04T05:36:23.478Z,45.23
2022-08-04T05:41:32.167Z,44.82
2022-08-04T05:46:54.241Z,46.09
2022-08-04T05:52:02.685Z,46.63
2022-08-04T05:57:05.078Z,47.00
2022-08-04T06:02:07.324Z,45.67
2022-08-04T06:07:10.433Z,42.82
2022-08-04T06:12:18.273Z,44.81
2022-08-04T06:18:33.174Z,46.66
2022-08-04T06:25:05.447Z,44.24
2022-08-04T06:30:13.489Z,41.56
2022-08-04T06:35:18.977Z,41.67
2022-08-04T06:40:31.965Z,42.43
2022-08-04T06:45:36.347Z,40.61
2022-08-04T06:51:32.149Z,39.62
2022-08-04T06:56:38.825Z,39.74
2022-08-04T07:01:40.836Z,38.90
2022-08-04T07:06:42.072Z,40.09
2022-08-04T07:11:44.851Z,39.51
2022-08-04T07:16:49.285Z,40.33
2022-08-04T07:22:16.264Z,40.04
2022-08-04T07:27:47.899Z,40.36
2022-08-04T07:32:50.348Z,40.65
2022-08-04T07:37:51.174Z,39.28
2022-08-04T07:42:52.918Z,38.61
2022-08-04T07:48:05.198Z,37.82
2022-08-04T07:53:54.493Z,37.82
2022-08-04T07:58:57.644Z,37.25
2022-08-04T08:03:59.822Z,37.25
2022-08-04T08:09:13.510Z,37.10
2022-08-04T08:14:16.701Z,37.05
2022-08-04T08:19:18.006Z,37.09
2022-08-04T08:24:18.883Z,37.06
2022-08-04T08:29:20.599Z,36.18
2022-08-04T08:34:27.988Z,35.55
2022-08-04T08:41:08.966Z,36.14
2022-08-04T08:47:01.434Z,36.30
2022-08-04T08:52:56.626Z,36.02
2022-08-04T09:03:18.500Z,35.41
2022-08-04T09:08:54.829Z,35.04
2022-08-04T09:14:01.433Z,35.50
2022-08-04T09:19:09.659Z,34.43
2022-08-04T09:24:35.684Z,34.56
2022-08-04T09:30:01.211Z,34.33
2022-08-04T09:48:38.998Z,34.24
2022-08-04T09:54:01.707Z,33.24
2022-08-04T10:00:42.443Z,32.80
2022-08-04T10:09:12.548Z,31.65
2022-08-04T10:14:39.720Z,30.81
2022-08-04T10:19:41.569Z,30.92
2022-08-04T10:31:35.804Z,31.71
2022-08-04T10:38:15.538Z,29.11
2022-08-04T10:43:42.075Z,29.05
2022-08-04T10:49:14.126Z,24.53
2022-08-04T10:54:25.813Z,23.65
2022-08-04T10:59:38.022Z,24.46
2022-08-04T11:04:47.927Z,24.73
2022-08-04T11:09:49.306Z,24.53
2022-08-04T11:15:10.311Z,24.44
2022-08-04T11:20:34.555Z,24.07
2022-08-04T11:26:20.815Z,23.68
2022-08-04T11:31:47.358Z,22.54
2022-08-04T11:37:20.091Z,21.46
2022-08-04T11:43:04.219Z,21.99
2022-08-04T11:48:19.488Z,21.92
2022-08-04T11:53:34.694Z,22.70
2022-08-04T11:58:38.217Z,23.02
2022-08-04T12:05:36.058Z,23.55
2022-08-04T12:11:12.913Z,22.40
2022-08-04T12:17:04.207Z,21.07
2022-08-04T12:22:15.029Z,20.75
2022-08-04T12:27:30.541Z,20.66
2022-08-04T12:32:48.254Z,21.11
2022-08-04T12:38:11.360Z,22.04
2022-08-04T12:44:36.248Z,21.54
2022-08-04T12:49:43.451Z,20.69
2022-08-04T12:54:55.933Z,20.98
2022-08-04T12:59:58.132Z,21.15
2022-08-04T13:05:03.846Z,21.44
2022-08-04T13:10:12.601Z,22.02
2022-08-04T13:15:21.964Z,21.85
2022-08-04T13:20:35.462Z,21.59
2022-08-04T13:26:43.710Z,21.03
2022-08-04T13:31:55.075Z,20.35
2022-08-04T13:36:58.663Z,21.01
2022-08-04T13:42:04.181Z,21.47
2022-08-04T13:47:14.673Z,22.28
2022-08-04T13:52:15.898Z,22.59
2022-08-04T13:57:23.074Z,22.59
2022-08-04T14:02:37.435Z,23.10
2022-08-04T14:07:45.917Z,23.83
2022-08-04T14:12:50.035Z,23.57
2022-08-04T14:17:50.903Z,23.68
2022-08-04T14:23:01.696Z,24.04
2022-08-04T14:28:02.796Z,24.04
2022-08-04T14:34:01.504Z,23.99
2022-08-04T14:39:06.544Z,23.76
2022-08-04T14:44:07.547Z,23.88
2022-08-04T14:49:11.634Z,23.65
2022-08-04T14:54:18.410Z,23.52
2022-08-04T14:59:21.223Z,23.72
2022-08-04T15:04:24.429Z,23.53
2022-08-04T15:09:25.796Z,23.81
2022-08-04T15:14:36.915Z,23.91
2022-08-04T15:19:39.347Z,23.55
2022-08-04T15:24:40.206Z,23.11
2022-08-04T15:30:00.664Z,21.86
2022-08-04T15:35:06.043Z,21.29
2022-08-04T15:40:27.135Z,21.04
2022-08-04T15:46:43.183Z,21.27
2022-08-04T15:51:45.695Z,21.07
2022-08-04T15:57:01.391Z,21.04
2022-08-04T16:02:29.493Z,21.30
2022-08-04T16:08:31.409Z,21.54
2022-08-04T16:13:32.436Z,21.26
2022-08-04T16:18:38.551Z,21.67
2022-08-04T16:24:06.484Z,21.46
2022-08-04T16:29:31.253Z,21.42
2022-08-04T16:34:54.030Z,21.61
2022-08-04T16:40:37.710Z,21.61
2022-08-04T16:45:45.383Z,21.72
2022-08-04T16:51:06.066Z,21.86
2022-08-04T16:56:10.238Z,21.50
2022-08-04T17:01:32.185Z,21.74
2022-08-04T17:06:37.291Z,22.65
2022-08-04T17:11:39.101Z,22.98
2022-08-04T17:16:41.914Z,23.55
2022-08-04T17:21:43.855Z,24.25
2022-08-04T17:26:53.741Z,24.85
2022-08-04T17:31:55.722Z,25.56
2022-08-04T17:37:24.102Z,26.14
2022-08-04T17:42:38.838Z,26.63
2022-08-04T17:47:51.765Z,27.04
2022-08-04T17:53:11.953Z,27.41
2022-08-04T17:58:21.533Z,27.44
2022-08-04T18:03:29.856Z,28.06
2022-08-04T18:08:39.048Z,28.12
2022-08-04T18:13:43.346Z,28.50
2022-08-04T18:19:06.256Z,29.04
2022-08-04T18:24:07.482Z,30.24
2022-08-04T18:29:26.614Z,31.12
2022-08-04T18:34:32.464Z,33.04
2022-08-04T18:40:24.934Z,33.04
2022-08-04T18:45:34.309Z,33.80
2022-08-04T18:51:09.223Z,34.53
2022-08-04T18:56:19.941Z,35.38
2022-08-04T19:02:13.700Z,36.53
2022-08-04T19:07:24.682Z,37.63
2022-08-04T19:12:32.568Z,38.44
2022-08-04T19:17:53.856Z,38.93
2022-08-04T19:24:28.692Z,39.49
2022-08-04T19:29:40.782Z,39.76
2022-08-04T19:34:46.334Z,40.23
2022-08-04T19:39:48.356Z,40.92
2022-08-04T19:44:49.328Z,41.26
2022-08-04T19:50:05.432Z,41.71
2022-08-04T19:55:11.792Z,42.23
2022-08-04T20:00:13.590Z,42.79
2022-08-04T20:05:16.198Z,43.28
2022-08-04T20:10:18.261Z,43.75
2022-08-04T20:15:25.175Z,44.42
2022-08-04T20:20:26.006Z,44.75
2022-08-04T20:25:36.490Z,44.92
2022-08-04T20:30:38.840Z,45.41
2022-08-04T20:36:00.706Z,45.42
2022-08-04T20:41:05.655Z,45.61
2022-08-04T22:30:17.050Z,45.33
2022-08-04T22:35:35.546Z,55.19
2022-08-04T22:40:47.563Z,56.56
2022-08-04T22:45:48.624Z,56.79
2022-08-04T22:50:52.442Z,57.41
2022-08-04T22:56:06.296Z,58.72
2022-08-04T23:01:09.443Z,60.09
2022-08-04T23:06:11.918Z,61.84
2022-08-04T23:11:12.825Z,63.21
2022-08-04T23:16:13.721Z,65.84
2022-08-04T23:21:14.611Z,66.23
2022-08-04T23:26:15.854Z,69.76
2022-08-04T23:31:17.168Z,71.64
2022-08-04T23:36:29.552Z,77.49
2022-08-04T23:41:53.815Z,83.08
2022-08-04T23:47:01.428Z,84.35
2022-08-04T23:52:03.524Z,87.89
2022-08-04T23:57:08.916Z,95.63
